Time;durP1;ratioP1;P1;durP2;ratioP2;P2;SDS_P1;SDS_P2;PMS_P1;PMS_P2;Temp;Humidity;BMP_temperature;BMP_pressure;BME280_temperature;BME280_humidity;BME280_pressure;Samples;Min_cycle;Max_cycle;Signal;HPM_P1;HPM_P2
2023/04/15 00:01:52;;;;;;;;;2.00;2.00;;;;;14.52;47.42;97479.63;5942484;29;98369;-63
2023/04/15 00:04:55;;;;;;;;;3.00;2.00;;;;;14.53;47.33;97490.19;5973514;29;96273;-63
2023/04/15 00:08:00;;;;;;;;;2.00;2.00;;;;;14.39;47.65;97486.47;5958342;29;96573;-63
2023/04/15 00:11:04;;;;;;;;;2.00;2.00;;;;;14.50;47.38;97489.94;5927298;29;96744;-63
2023/04/15 00:14:09;;;;;;;;;4.00;3.00;;;;;14.33;47.65;97491.09;5952446;29;96269;-63
2023/04/15 00:17:12;;;;;;;;;2.50;2.50;;;;;14.41;47.48;97497.06;5951427;29;96323;-63
2023/04/15 00:20:16;;;;;;;;;2.60;2.60;;;;;14.40;47.32;97507.09;5961364;29;96759;-63
2023/04/15 00:23:19;;;;;;;;;3.00;2.00;;;;;14.17;47.77;97505.00;5958285;29;96265;-63
2023/04/15 00:26:23;;;;;;;;;2.00;2.00;;;;;14.28;47.64;97495.72;5958295;29;98967;-63
2023/04/15 00:29:28;;;;;;;;;3.00;3.00;;;;;14.37;47.39;97496.00;5957131;29;98735;-63
2023/04/15 00:32:31;;;;;;;;;2.80;2.80;;;;;14.45;47.11;97500.81;5974214;29;96290;-63
2023/04/15 00:35:35;;;;;;;;;3.20;3.20;;;;;14.32;47.11;97488.66;5974754;29;96837;-63
2023/04/15 00:38:39;;;;;;;;;3.60;3.60;;;;;14.34;47.02;97481.06;5958149;29;96978;-63
2023/04/15 00:41:42;;;;;;;;;3.00;3.00;;;;;14.57;46.88;97476.88;5974271;29;96576;-63
2023/04/15 00:44:47;;;;;;;;;5.00;5.00;;;;;14.51;46.85;97469.88;5942135;29;98517;-63
2023/04/15 00:47:51;;;;;;;;;2.00;2.00;;;;;14.52;46.80;97474.19;5947629;29;98714;-63
2023/04/15 00:50:54;;;;;;;;;3.80;3.20;;;;;14.52;46.87;97475.00;5957070;29;99784;-63
2023/04/15 00:53:58;;;;;;;;;3.00;3.00;;;;;14.66;46.35;97470.56;5973750;29;97545;-63
2023/04/15 00:57:02;;;;;;;;;4.00;4.00;;;;;14.82;46.35;97484.03;5973913;29;96529;-63
2023/04/15 01:00:10;;;;;;;;;3.00;3.00;;;;;14.92;46.32;97487.47;5973556;29;96389;-63
2023/04/15 01:03:14;;;;;;;;;3.40;3.40;;;;;15.00;46.33;97491.50;5974548;29;97447;-63
2023/04/15 01:06:18;;;;;;;;;4.00;4.00;;;;;14.89;45.78;97471.78;5957797;29;99087;-62
2023/04/15 01:09:22;;;;;;;;;2.00;2.00;;;;;15.07;45.72;97500.94;5969273;29;96518;-63
2023/04/15 01:12:27;;;;;;;;;4.40;4.00;;;;;15.10;45.71;97505.00;5961738;29;96850;-63
2023/04/15 01:15:32;;;;;;;;;4.00;4.00;;;;;15.16;45.66;97496.50;5968220;29;97356;-63
2023/04/15 01:18:36;;;;;;;;;3.00;3.00;;;;;15.20;45.42;97507.59;5942945;29;96237;-63
2023/04/15 01:21:41;;;;;;;;;4.00;4.00;;;;;14.97;45.34;97506.44;5945953;29;96349;-63
2023/04/15 01:24:53;;;;;;;;;4.00;3.20;;;;;14.77;46.20;97509.28;5951261;29;96366;-63
2023/04/15 01:27:57;;;;;;;;;5.00;5.00;;;;;14.51;46.54;97507.84;5954323;29;98515;-63
2023/04/15 01:31:09;;;;;;;;;4.00;4.00;;;;;14.47;46.64;97493.19;5972543;29;96709;-63
2023/04/15 01:34:13;;;;;;;;;3.00;3.00;;;;;14.60;46.41;97498.84;5957663;29;96306;-63
2023/04/15 01:37:34;;;;;;;;;4.40;4.40;;;;;14.75;45.90;97506.06;5956429;29;96142;-63
2023/04/15 01:40:38;;;;;;;;;3.00;3.00;;;;;14.76;46.10;97510.38;5958159;29;96397;-63
2023/04/15 01:43:44;;;;;;;;;4.40;4.40;;;;;14.64;46.25;97502.59;5975880;29;125906;-63
2023/04/15 01:46:49;;;;;;;;;4.40;4.40;;;;;14.43;46.55;97498.38;5959915;29;124835;-63
2023/04/15 01:49:53;;;;;;;;;4.00;3.60;;;;;14.43;46.72;97489.44;5968054;29;126528;-63
2023/04/15 01:52:58;;;;;;;;;5.00;4.00;;;;;14.54;46.67;97494.53;5953198;29;124910;-62
2023/04/15 01:56:03;;;;;;;;;3.60;3.60;;;;;14.66;46.56;97511.25;5948908;29;125288;-63
2023/04/15 01:59:09;;;;;;;;;3.00;3.00;;;;;14.67;46.22;97517.50;5959455;29;126091;-63
2023/04/15 02:02:15;;;;;;;;;4.00;4.00;;;;;14.57;46.25;97521.06;5975126;29;124936;-63
2023/04/15 02:05:19;;;;;;;;;4.00;4.00;;;;;14.46;46.54;97522.25;5955325;29;124988;-63
2023/04/15 02:08:24;;;;;;;;;4.00;4.00;;;;;14.27;46.87;97523.91;5963061;29;124909;-63
2023/04/15 02:11:29;;;;;;;;;3.00;3.00;;;;;14.15;47.10;97524.25;5955176;29;124954;-63
2023/04/15 02:14:35;;;;;;;;;3.40;3.40;;;;;14.06;47.40;97527.81;5950884;29;125543;-63
2023/04/15 02:17:39;;;;;;;;;3.00;3.00;;;;;14.11;47.28;97523.19;5972956;29;125926;-63
2023/04/15 02:20:45;;;;;;;;;3.00;3.00;;;;;14.28;46.91;97525.53;5974169;29;124182;-63
2023/04/15 02:23:51;;;;;;;;;3.00;3.00;;;;;14.40;46.62;97533.38;5959299;29;124816;-63
2023/04/15 02:26:57;;;;;;;;;5.00;4.00;;;;;14.22;46.33;97532.09;5975239;29;124692;-63
2023/04/15 02:30:04;;;;;;;;;3.40;3.40;;;;;14.38;46.51;97554.53;5975160;29;124941;-63
2023/04/15 02:33:11;;;;;;;;;3.80;3.80;;;;;14.40;46.39;97544.22;5974858;29;124933;-63
2023/04/15 02:36:16;;;;;;;;;3.00;3.00;;;;;14.27;46.01;97513.06;5966558;29;124010;-63
2023/04/15 02:39:20;;;;;;;;;4.50;4.50;;;;;14.37;46.09;97542.09;5954274;29;124914;-63
2023/04/15 02:42:27;;;;;;;;;2.20;2.20;;;;;14.48;45.89;97541.75;5972151;29;124901;-63
2023/04/15 02:45:33;;;;;;;;;3.00;3.00;;;;;14.51;45.67;97534.97;5973587;29;125006;-63
2023/04/15 02:48:40;;;;;;;;;3.60;3.60;;;;;14.53;45.94;97532.75;5958366;29;125889;-63
2023/04/15 02:51:48;;;;;;;;;5.00;5.00;;;;;14.58;45.76;97541.69;5953058;29;124917;-63
2023/04/15 02:54:56;;;;;;;;;4.00;4.00;;;;;14.59;45.52;97543.31;5958102;29;127233;-63
2023/04/15 02:58:00;;;;;;;;;5.00;5.00;;;;;14.62;45.46;97540.03;5974428;29;125000;-63
2023/04/15 03:01:07;;;;;;;;;3.20;3.00;;;;;14.67;45.58;97550.03;5958383;29;126354;-63
2023/04/15 03:04:13;;;;;;;;;3.00;3.00;;;;;14.65;45.31;97544.09;5949583;29;125375;-63
2023/04/15 03:07:18;;;;;;;;;3.00;2.60;;;;;14.63;45.66;97544.38;5968100;29;123932;-63
2023/04/15 03:10:22;;;;;;;;;5.60;5.60;;;;;14.56;45.05;97538.44;5963720;29;124861;-63
2023/04/15 03:13:28;;;;;;;;;4.40;4.00;;;;;14.32;44.95;97511.16;5948509;29;125259;-63
2023/04/15 03:16:36;;;;;;;;;3.00;3.00;;;;;14.53;44.98;97551.75;5949241;29;123050;-63
2023/04/15 03:19:41;;;;;;;;;5.00;5.00;;;;;14.54;45.14;97553.38;5972670;29;124217;-63
2023/04/15 03:22:45;;;;;;;;;4.25;4.25;;;;;14.50;45.72;97560.44;5945585;29;124078;-63
2023/04/15 03:25:54;;;;;;;;;4.00;4.00;;;;;14.50;45.34;97555.03;5953961;29;125174;-63
2023/04/15 03:29:00;;;;;;;;;4.60;4.60;;;;;14.50;45.14;97558.56;5973557;29;124889;-63
2023/04/15 03:32:07;;;;;;;;;7.00;7.00;;;;;14.04;45.25;97517.25;5953847;29;126559;-63
2023/04/15 03:35:11;;;;;;;;;4.00;4.00;;;;;14.44;45.39;97567.81;5942309;29;127001;-63
2023/04/15 03:38:16;;;;;;;;;4.00;4.00;;;;;14.44;45.62;97561.56;5956153;29;125013;-63
2023/04/15 03:41:21;;;;;;;;;4.00;4.00;;;;;14.43;45.99;97570.78;5988368;29;126181;-63
2023/04/15 03:44:26;;;;;;;;;5.40;5.40;;;;;14.19;46.40;97549.72;5958138;29;124971;-63
2023/04/15 03:47:32;;;;;;;;;5.00;4.00;;;;;14.29;46.38;97582.19;5946890;29;124075;-63
2023/04/15 03:50:37;;;;;;;;;3.00;3.00;;;;;14.27;46.61;97587.06;5972900;29;124910;-63
2023/04/15 03:53:41;;;;;;;;;2.00;2.00;;;;;14.23;46.80;97586.00;5943786;29;125529;-63
2023/04/15 03:56:46;;;;;;;;;3.00;3.00;;;;;14.09;46.90;97578.75;5949600;29;125536;-63
2023/04/15 03:59:50;;;;;;;;;3.00;3.00;;;;;14.15;47.21;97602.84;5969277;29;126207;-63
2023/04/15 04:02:56;;;;;;;;;3.00;3.00;;;;;14.14;47.37;97620.19;5953966;29;124480;-63
2023/04/15 04:06:01;;;;;;;;;4.00;4.00;;;;;14.04;47.75;97624.81;5970642;29;125921;-62
2023/04/15 04:09:06;;;;;;;;;4.00;4.00;;;;;13.96;47.92;97628.91;5955162;29;126199;-62
2023/04/15 04:12:11;;;;;;;;;6.40;6.00;;;;;13.86;48.06;97615.38;5972281;29;124083;-63
2023/04/15 04:15:15;;;;;;;;;3.75;3.00;;;;;13.84;48.26;97617.53;5953848;29;126167;-63
2023/04/15 04:18:21;;;;;;;;;3.00;3.00;;;;;13.84;48.79;97621.06;5969768;29;123996;-63
2023/04/15 04:21:26;;;;;;;;;4.00;4.00;;;;;13.84;48.88;97628.38;5973246;29;124839;-63
2023/04/15 04:24:31;;;;;;;;;3.50;3.50;;;;;13.85;49.12;97633.53;5972476;29;124885;-63
2023/04/15 04:27:36;;;;;;;;;4.00;4.00;;;;;13.91;49.12;97633.53;5972533;29;124208;-63
2023/04/15 04:30:41;;;;;;;;;4.60;4.60;;;;;13.93;49.14;97626.72;5939737;29;125518;-63
2023/04/15 04:33:47;;;;;;;;;3.00;3.00;;;;;13.92;48.97;97622.41;5962762;29;124913;-63
2023/04/15 04:36:51;;;;;;;;;2.60;2.60;;;;;13.93;49.01;97628.66;5959995;29;123991;-63
2023/04/15 04:39:56;;;;;;;;;3.60;3.60;;;;;14.01;49.02;97623.50;5964000;29;124907;-63
2023/04/15 04:43:01;;;;;;;;;6.00;6.00;;;;;13.97;49.06;97621.59;5969689;29;127062;-62
2023/04/15 04:46:06;;;;;;;;;4.50;4.50;;;;;14.10;48.80;97623.72;5954837;29;125907;-63
2023/04/15 04:49:11;;;;;;;;;4.20;2.20;;;;;14.15;49.15;97637.28;5971439;29;124047;-63
2023/04/15 04:52:16;;;;;;;;;4.20;4.20;;;;;14.22;48.75;97629.69;5961176;29;126119;-62
2023/04/15 04:55:21;;;;;;;;;2.25;2.25;;;;;14.28;48.64;97631.25;5967472;29;124977;-62
2023/04/15 04:58:26;;;;;;;;;6.00;5.40;;;;;14.33;48.75;97644.81;5946529;29;125878;-62
2023/04/15 05:01:30;;;;;;;;;5.00;5.00;;;;;14.42;48.69;97636.94;5960077;29;126997;-63
2023/04/15 05:04:36;;;;;;;;;5.00;5.00;;;;;14.54;48.52;97637.44;5967223;29;124098;-62
2023/04/15 05:07:41;;;;;;;;;2.80;2.80;;;;;14.63;48.30;97642.00;5951572;29;127151;-63
2023/04/15 05:10:46;;;;;;;;;5.40;5.00;;;;;14.72;48.36;97648.47;5954229;29;125922;-63
2023/04/15 05:13:50;;;;;;;;;6.00;6.00;;;;;14.84;48.04;97648.16;5944683;29;124078;-63
2023/04/15 05:16:55;;;;;;;;;5.80;5.80;;;;;14.94;47.74;97658.97;5960791;29;124121;-63
2023/04/15 05:20:02;;;;;;;;;6.20;5.20;;;;;15.05;47.77;97659.72;5964157;29;124886;-63
2023/04/15 05:23:06;;;;;;;;;6.60;6.00;;;;;15.13;46.68;97667.28;5953470;29;124034;-63
2023/04/15 05:26:11;;;;;;;;;3.75;3.75;;;;;15.18;46.22;97670.78;5944435;29;124920;-63
2023/04/15 05:29:15;;;;;;;;;4.00;4.00;;;;;15.31;45.95;97663.91;5963586;29;126285;-63
2023/04/15 05:32:20;;;;;;;;;4.00;4.00;;;;;15.44;45.26;97654.31;5948670;29;125854;-63
2023/04/15 05:35:26;;;;;;;;;4.00;4.00;;;;;15.66;45.23;97668.28;5964740;29;124915;-62
2023/04/15 05:38:30;;;;;;;;;5.00;5.00;;;;;15.91;44.79;97665.38;5965869;29;124018;-63
2023/04/15 05:41:35;;;;;;;;;3.00;3.00;;;;;16.07;44.22;97671.47;5961028;29;124953;-63
2023/04/15 05:44:39;;;;;;;;;7.00;6.00;;;;;16.24;43.73;97671.03;5950660;29;124985;-63
2023/04/15 05:47:44;;;;;;;;;5.60;5.00;;;;;16.37;43.52;97671.16;5971317;29;124901;-63
2023/04/15 05:50:50;;;;;;;;;6.00;5.00;;;;;16.64;43.24;97677.97;5963178;29;125935;-63
2023/04/15 05:53:55;;;;;;;;;3.80;3.80;;;;;16.90;42.41;97676.56;5968114;29;127528;-63
2023/04/15 05:56:59;;;;;;;;;4.00;4.00;;;;;17.15;42.00;97675.44;5960328;29;124948;-63
2023/04/15 06:00:06;;;;;;;;;17.00;13.00;;;;;17.40;41.81;97666.88;5953079;29;124916;-63
2023/04/15 06:03:16;;;;;;;;;5.80;4.40;;;;;17.46;41.02;97673.06;5966841;29;124909;-63
2023/04/15 06:06:23;;;;;;;;;6.80;6.20;;;;;17.62;40.69;97683.47;5963003;29;125845;-63
2023/04/15 06:09:27;;;;;;;;;6.00;6.00;;;;;17.83;40.83;97683.97;5952839;29;125994;-63
2023/04/15 06:12:32;;;;;;;;;5.00;3.00;;;;;18.04;40.16;97689.88;5958660;29;124710;-62
2023/04/15 06:15:37;;;;;;;;;5.00;5.00;;;;;18.26;40.12;97681.84;5946140;29;126045;-63
2023/04/15 06:18:41;;;;;;;;;5.50;5.50;;;;;18.54;39.85;97697.19;5963590;29;125327;-63
2023/04/15 06:21:48;;;;;;;;;8.80;8.00;;;;;18.74;39.58;97689.72;5961698;29;123864;-63
2023/04/15 06:24:54;;;;;;;;;5.00;4.40;;;;;18.93;39.09;97687.69;5965356;29;127179;-63
2023/04/15 06:28:02;;;;;;;;;3.00;3.00;;;;;19.25;38.95;97692.19;5963475;29;125032;-63
2023/04/15 06:31:08;;;;;;;;;3.00;3.00;;;;;19.39;38.37;97688.31;5964532;29;124888;-63
2023/04/15 06:34:13;;;;;;;;;5.00;5.00;;;;;19.49;37.20;97687.31;5964558;29;125170;-63
2023/04/15 06:37:19;;;;;;;;;11.00;9.60;;;;;19.63;36.97;97673.59;5965047;29;124161;-63
2023/04/15 06:40:24;;;;;;;;;4.00;4.00;;;;;20.06;37.56;97707.53;5968958;29;125775;-63
2023/04/15 06:43:28;;;;;;;;;6.00;5.00;;;;;20.14;36.20;97700.50;5948359;29;125250;-63
2023/04/15 06:46:33;;;;;;;;;5.40;5.40;;;;;20.26;35.26;97701.56;5966408;29;124570;-63
2023/04/15 06:49:39;;;;;;;;;4.40;4.40;;;;;20.37;35.90;97702.13;5953693;29;127987;-62
2023/04/15 06:52:45;;;;;;;;;6.00;5.00;;;;;20.57;35.85;97715.28;5944917;29;125895;-63
2023/04/15 06:55:50;;;;;;;;;5.00;4.00;;;;;20.82;35.61;97721.19;5966182;29;125502;-62
2023/04/15 06:58:54;;;;;;;;;6.40;6.40;;;;;20.97;35.62;97731.69;5947139;29;125294;-62
2023/04/15 07:01:59;;;;;;;;;9.00;9.00;;;;;21.09;35.78;97723.69;5967893;29;126381;-62
2023/04/15 07:05:04;;;;;;;;;6.00;5.60;;;;;21.06;34.38;97729.81;5948941;29;124473;-63
2023/04/15 07:08:11;;;;;;;;;4.60;4.60;;;;;21.16;34.92;97727.59;5971535;29;125894;-63
2023/04/15 07:11:16;;;;;;;;;5.00;5.00;;;;;21.05;34.47;97722.72;5973721;29;125841;-63
2023/04/15 07:14:21;;;;;;;;;4.75;4.75;;;;;20.93;34.66;97728.00;5972330;29;125435;-63
2023/04/15 07:17:25;;;;;;;;;4.00;4.00;;;;;;;;5968968;29;124925;-63
2023/04/15 07:20:30;;;;;;;;;6.00;5.00;;;;;20.97;34.24;97740.72;5955213;29;126172;-62
2023/04/15 07:23:35;;;;;;;;;5.80;5.00;;;;;20.98;34.08;97742.34;5973166;29;126176;-62
2023/04/15 07:26:40;;;;;;;;;5.00;5.00;;;;;20.80;33.82;97746.16;5974083;29;126880;-62
2023/04/15 07:29:44;;;;;;;;;5.00;5.00;;;;;20.87;34.29;97746.50;5973529;29;125928;-63
2023/04/15 07:32:49;;;;;;;;;9.50;8.00;;;;;20.89;34.58;97752.47;5971883;29;124920;-63
2023/04/15 07:35:53;;;;;;;;;4.00;3.00;;;;;20.79;34.23;97746.47;5973398;29;127434;-62
2023/04/15 07:39:00;;;;;;;;;3.00;3.00;;;;;20.94;33.75;97752.34;5971945;29;125502;-62
2023/04/15 07:42:05;;;;;;;;;5.40;5.00;;;;;21.00;33.11;97756.56;5993237;29;124900;-62
2023/04/15 07:45:11;;;;;;;;;5.40;5.40;;;;;21.15;32.84;97769.88;5989898;29;124887;-62
2023/04/15 07:48:16;;;;;;;;;4.00;4.00;;;;;21.31;33.23;97758.44;5990415;29;124787;-61
2023/04/15 07:51:21;;;;;;;;;4.00;4.00;;;;;21.38;32.50;97756.88;5988101;29;124938;-61
2023/04/15 07:54:27;;;;;;;;;5.00;4.00;;;;;21.39;32.50;97765.91;5985477;29;125858;-62
2023/04/15 07:57:32;;;;;;;;;4.00;4.00;;;;;21.48;32.84;97767.53;5985900;29;125232;-62
2023/04/15 08:00:37;;;;;;;;;5.40;5.00;;;;;21.66;32.56;97767.53;5980858;29;124888;-63
2023/04/15 08:03:41;;;;;;;;;4.00;4.00;;;;;21.85;32.58;97770.78;5988384;29;124883;-62
2023/04/15 08:06:48;;;;;;;;;5.60;5.60;;;;;21.98;31.64;97770.69;5993787;29;125912;-61
2023/04/15 08:09:54;;;;;;;;;4.00;3.20;;;;;21.99;30.72;97771.50;5990260;29;124912;-62
2023/04/15 08:12:59;;;;;;;;;3.60;3.60;;;;;22.18;30.63;97777.47;5986586;29;124756;-62
2023/04/15 08:16:17;;;;;;;;;3.00;3.00;;;;;22.51;29.30;97769.50;5971184;29;124023;-62
2023/04/15 08:19:23;;;;;;;;;2.20;2.20;;;;;22.76;28.88;97767.84;5997235;29;124879;-62
2023/04/15 08:22:27;;;;;;;;;3.00;3.00;;;;;22.89;29.72;97773.16;5996882;29;124763;-61
2023/04/15 08:25:33;;;;;;;;;3.33;3.33;;;;;23.30;29.72;97777.19;5988428;29;125448;-62
2023/04/15 08:28:39;;;;;;;;;5.20;5.20;;;;;23.56;28.76;97775.09;5986926;29;124047;-61
2023/04/15 08:31:44;;;;;;;;;4.00;4.00;;;;;23.86;28.55;97784.13;5991370;29;124886;-62
2023/04/15 08:34:49;;;;;;;;;4.00;4.00;;;;;24.21;29.51;97772.88;5987112;29;123923;-62
2023/04/15 08:37:53;;;;;;;;;3.00;3.00;;;;;24.26;27.45;97776.25;5985194;29;125065;-61
2023/04/15 08:41:03;;;;;;;;;4.00;4.00;;;;;24.31;27.04;97776.03;5989539;29;124216;-62
2023/04/15 08:44:08;;;;;;;;;4.00;4.00;;;;;24.21;27.10;97770.94;5989501;29;124893;-61
2023/04/15 08:47:14;;;;;;;;;4.00;4.00;;;;;24.47;27.84;97778.97;5986571;29;125850;-62
2023/04/15 08:50:21;;;;;;;;;4.00;4.00;;;;;24.53;27.25;97761.09;5986366;29;124822;-62
2023/04/15 08:53:26;;;;;;;;;4.75;4.00;;;;;24.69;26.82;97775.00;5983558;29;124901;-62
2023/04/15 08:56:33;;;;;;;;;3.00;3.00;;;;;24.52;29.46;97764.97;5988293;29;124796;-62
2023/04/15 08:59:40;;;;;;;;;8.60;7.20;;;;;24.46;29.33;97769.91;5977136;29;124071;-62
2023/04/15 09:02:44;;;;;;;;;4.60;4.60;;;;;24.33;27.49;97771.00;5986321;29;124439;-62
2023/04/15 09:05:50;;;;;;;;;5.20;5.00;;;;;24.28;28.07;97784.19;5988011;29;123856;-61
2023/04/15 09:08:59;;;;;;;;;6.40;6.00;;;;;24.37;28.06;97749.91;5988080;29;124908;-61
2023/04/15 09:12:10;;;;;;;;;6.80;6.80;;;;;24.84;28.11;97753.09;5977646;29;125513;-62
2023/04/15 09:15:16;;;;;;;;;6.00;5.80;;;;;25.23;26.88;97765.47;5986238;29;125190;-62
2023/04/15 09:18:29;;;;;;;;;4.25;4.25;;;;;25.22;26.73;97763.06;5981757;29;124423;-61
2023/04/15 09:21:34;;;;;;;;;5.80;5.00;;;;;25.12;27.83;97760.78;5979006;29;124941;-62
2023/04/15 09:24:42;;;;;;;;;4.00;4.00;;;;;25.52;27.63;97769.94;5975949;29;124928;-61
2023/04/15 09:27:49;;;;;;;;;6.00;6.00;;;;;25.67;27.85;97772.03;5977293;29;125105;-61
2023/04/15 09:30:56;;;;;;;;;6.00;5.40;;;;;25.60;26.27;97766.31;5966983;29;124911;-63
2023/04/15 09:34:01;;;;;;;;;4.00;4.00;;;;;25.29;27.19;97763.28;5982939;29;124965;-60
2023/04/15 09:37:06;;;;;;;;;4.00;4.00;;;;;24.95;27.65;97768.09;5971742;29;125200;-61
2023/04/15 09:40:12;;;;;;;;;4.80;4.80;;;;;24.58;27.39;97771.91;5982694;28;125075;-61
2023/04/15 09:43:18;;;;;;;;;5.40;5.40;;;;;24.27;27.36;97768.78;5987223;29;124868;-62
2023/04/15 09:46:41;;;;;;;;;6.25;6.00;;;;;24.09;28.33;97771.66;5980356;29;125911;-61
2023/04/15 09:49:55;;;;;;;;;4.60;4.60;;;;;23.57;27.98;97782.22;5990013;29;125562;-61
2023/04/15 09:53:03;;;;;;;;;4.80;4.80;;;;;23.21;27.58;97774.47;5986540;29;126102;-61
2023/04/15 09:56:09;;;;;;;;;6.00;5.00;;;;;23.11;29.34;97769.34;5970663;29;124892;-61
2023/04/15 09:59:15;;;;;;;;;5.00;5.00;;;;;23.26;28.60;97770.75;5974432;29;124784;-61
2023/04/15 10:02:20;;;;;;;;;4.00;4.00;;;;;23.31;27.86;97763.09;5990406;29;124811;-61
2023/04/15 10:05:25;;;;;;;;;6.00;6.00;;;;;23.46;27.74;97769.19;5989085;29;125280;-61
2023/04/15 10:08:31;;;;;;;;;6.00;6.00;;;;;23.17;27.32;97765.25;5972259;29;124933;-62
2023/04/15 10:11:36;;;;;;;;;4.00;3.00;;;;;23.59;26.72;97768.16;5989155;29;125363;-61
2023/04/15 10:14:44;;;;;;;;;4.00;3.00;;;;;24.09;27.94;97765.34;5985486;29;126419;-61
2023/04/15 10:17:53;;;;;;;;;4.60;4.60;;;;;24.64;26.43;97761.44;5990932;28;125975;-60
2023/04/15 10:21:01;;;;;;;;;4.00;4.00;;;;;25.46;26.15;97763.06;5985865;29;124886;-61
2023/04/15 10:24:07;;;;;;;;;3.00;3.00;;;;;25.71;25.61;97767.41;5989410;29;125400;-59
2023/04/15 10:27:12;;;;;;;;;3.40;3.40;;;;;24.99;24.61;97752.47;5994066;29;124907;-60
2023/04/15 10:30:18;;;;;;;;;4.00;4.00;;;;;25.20;25.31;97763.41;5992274;29;124905;-61
2023/04/15 10:33:25;;;;;;;;;5.00;5.00;;;;;25.29;25.50;97764.09;5988545;29;126159;-61
2023/04/15 10:36:30;;;;;;;;;4.00;4.00;;;;;25.38;25.09;97770.31;5990793;29;124881;-61
2023/04/15 10:39:43;;;;;;;;;2.40;2.40;;;;;25.04;24.70;97759.72;5990274;29;124926;-60
2023/04/15 10:42:48;;;;;;;;;4.00;4.00;;;;;25.60;25.01;97766.31;5986572;29;124880;-61
2023/04/15 10:45:54;;;;;;;;;3.60;3.00;;;;;25.35;24.88;97762.72;5994529;29;124888;-61
2023/04/15 10:48:58;;;;;;;;;4.00;4.00;;;;;25.43;24.42;97758.22;5992693;29;124801;-61
2023/04/15 10:52:03;;;;;;;;;3.20;3.20;;;;;25.94;25.18;97764.16;5989257;29;125497;-61
2023/04/15 10:55:14;;;;;;;;;4.00;4.00;;;;;26.03;23.91;97759.31;5996695;29;124173;-61
2023/04/15 10:58:19;;;;;;;;;4.25;3.75;;;;;25.82;23.75;97765.81;5985140;29;124854;-61
2023/04/15 11:01:51;;;;;;;;;5.00;5.00;;;;;25.61;24.59;97767.13;6006523;29;126203;-60
2023/04/15 11:04:58;;;;;;;;;4.00;4.00;;;;;24.90;24.60;97754.53;6001615;29;123632;-60
2023/04/15 11:08:03;;;;;;;;;4.00;4.00;;;;;24.25;25.39;97758.09;6002588;29;124915;-60
2023/04/15 11:11:08;;;;;;;;;3.75;3.75;;;;;23.40;25.77;97756.75;6001377;29;124793;-61
2023/04/15 11:14:15;;;;;;;;;4.00;4.00;;;;;23.01;26.87;97755.16;6000180;29;124917;-60
2023/04/15 11:17:28;;;;;;;;;5.00;4.60;;;;;22.78;27.28;97755.41;6001014;29;124900;-60
2023/04/15 11:20:34;;;;;;;;;6.00;5.75;;;;;22.84;27.61;97761.53;5995115;29;125003;-60
2023/04/15 11:23:42;;;;;;;;;5.00;5.00;;;;;22.76;27.18;97770.59;5978759;29;124861;-61
2023/04/15 11:26:47;;;;;;;;;5.00;4.60;;;;;22.65;27.63;97772.06;5999145;29;124914;-60
2023/04/15 11:29:52;;;;;;;;;4.00;3.00;;;;;23.02;27.92;97773.28;5997328;29;125163;-60
2023/04/15 11:33:00;;;;;;;;;4.80;4.80;;;;;23.18;27.54;97766.88;5993679;29;125648;-60
2023/04/15 11:36:06;;;;;;;;;5.40;5.40;;;;;23.07;27.35;97784.88;5999840;29;125716;-60
2023/04/15 11:39:11;;;;;;;;;4.60;4.60;;;;;22.79;27.17;97772.69;5983824;29;124932;-60
2023/04/15 11:42:17;;;;;;;;;3.20;3.20;;;;;23.10;27.51;97773.22;6000194;29;124253;-60
2023/04/15 11:45:22;;;;;;;;;6.40;6.00;;;;;23.20;28.00;97783.88;6000017;29;124883;-60
2023/04/15 11:48:29;;;;;;;;;5.00;5.00;;;;;22.69;27.25;97786.75;5986758;29;124280;-61
2023/04/15 11:51:34;;;;;;;;;7.00;7.00;;;;;22.55;27.60;97786.13;5998050;29;125108;-60
2023/04/15 11:54:37;;;;;;;;;7.00;7.00;;;;;22.02;28.12;97773.59;5997483;29;96339;-60
2023/04/15 11:57:41;;;;;;;;;5.00;5.00;;;;;22.06;29.17;97790.22;5986592;28;98367;-61
2023/04/15 12:00:51;;;;;;;;;7.00;6.25;;;;;21.90;28.96;97793.41;5990471;29;97734;-61
2023/04/15 12:03:58;;;;;;;;;6.40;6.00;;;;;21.49;29.38;97791.09;5973098;29;96650;-60
2023/04/15 12:07:05;;;;;;;;;7.00;7.00;;;;;21.16;29.62;97789.84;5995551;28;96525;-61
2023/04/15 12:10:08;;;;;;;;;5.40;5.40;;;;;21.35;30.22;97787.66;6002122;29;96248;-61
2023/04/15 12:13:11;;;;;;;;;4.40;4.40;;;;;21.55;29.93;97789.00;6004026;28;96161;-61
2023/04/15 12:16:17;;;;;;;;;4.80;4.80;;;;;21.95;28.88;97789.72;6004348;29;96352;-61
2023/04/15 12:19:27;;;;;;;;;7.25;6.50;;;;;22.32;29.38;97793.75;6001458;28;96481;-61
2023/04/15 12:22:30;;;;;;;;;2.75;2.00;;;;;22.66;28.05;97793.72;5994374;29;96287;-62
2023/04/15 12:25:35;;;;;;;;;3.75;3.75;;;;;22.71;27.98;97801.81;5991921;28;96300;-61
2023/04/15 12:28:40;;;;;;;;;2.00;2.00;;;;;22.70;28.23;97793.84;5990857;28;96598;-61
2023/04/15 12:31:51;;;;;;;;;2.00;2.00;;;;;22.41;28.35;97797.31;5977641;29;96863;-61
2023/04/15 12:34:57;;;;;;;;;3.00;3.00;;;;;22.30;28.10;97787.78;5996308;29;96372;-61
2023/04/15 12:38:00;;;;;;;;;5.80;5.80;;;;;22.13;28.72;97788.63;6004478;29;96329;-61
2023/04/15 12:41:03;;;;;;;;;4.00;4.00;;;;;21.85;29.00;97790.00;5972666;28;98508;-61
2023/04/15 12:44:07;;;;;;;;;3.25;3.00;;;;;21.58;29.45;97797.41;5972979;28;96716;-61
2023/04/15 12:47:11;;;;;;;;;5.00;5.00;;;;;21.50;29.71;97798.16;5987899;29;99243;-61
2023/04/15 12:50:17;;;;;;;;;3.00;3.00;;;;;21.48;29.61;97800.44;5991298;28;98021;-60
2023/04/15 12:53:20;;;;;;;;;3.20;3.00;;;;;21.38;29.44;97797.19;5981023;29;96399;-62
2023/04/15 12:56:24;;;;;;;;;6.00;6.00;;;;;21.34;29.78;97796.19;5963194;29;96348;-62
2023/04/15 12:59:28;;;;;;;;;5.00;4.25;;;;;21.20;30.09;97792.78;5964489;29;96655;-62
2023/04/15 13:02:31;;;;;;;;;3.00;2.40;;;;;20.93;30.46;97791.81;5963816;29;96885;-62
2023/04/15 13:05:38;;;;;;;;;6.50;6.00;;;;;21.01;30.75;97787.50;5943699;29;96727;-63
2023/04/15 13:08:42;;;;;;;;;5.00;5.00;;;;;20.99;30.56;97804.25;5946055;29;98809;-63
2023/04/15 13:12:00;;;;;;;;;3.60;3.60;;;;;20.90;31.07;97800.66;5959816;29;96245;-62
2023/04/15 13:15:04;;;;;;;;;5.00;5.00;;;;;20.88;30.97;97797.44;5959781;29;96297;-63
2023/04/15 13:18:08;;;;;;;;;6.00;4.60;;;;;20.93;30.82;97796.47;5960596;29;96410;-62
2023/04/15 13:21:13;;;;;;;;;3.00;3.00;;;;;21.06;30.62;97798.34;5961479;29;97160;-63
2023/04/15 13:24:16;;;;;;;;;5.00;4.00;;;;;21.05;29.67;97792.03;5947283;29;96578;-63
2023/04/15 13:27:20;;;;;;;;;2.25;2.25;;;;;21.61;30.53;97804.16;5946326;29;96662;-63
2023/04/15 13:30:23;;;;;;;;;5.00;5.00;;;;;21.98;29.87;97800.06;5959776;29;97050;-63
2023/04/15 13:33:27;;;;;;;;;4.40;4.00;;;;;22.09;29.07;97801.34;5959515;29;96953;-62
2023/04/15 13:36:31;;;;;;;;;3.00;3.00;;;;;21.93;29.53;97806.53;5960050;29;96910;-63
2023/04/15 13:39:35;;;;;;;;;5.00;5.00;;;;;21.75;29.33;97793.06;5963693;29;96961;-63
2023/04/15 13:42:38;;;;;;;;;3.40;3.40;;;;;22.14;30.07;97803.94;5965764;29;96423;-63
2023/04/15 13:45:41;;;;;;;;;6.00;6.00;;;;;22.71;30.05;97799.06;5963796;29;96510;-63
2023/04/15 13:48:45;;;;;;;;;5.00;4.20;;;;;23.20;29.04;97797.63;5947778;29;96669;-62
2023/04/15 13:51:49;;;;;;;;;3.00;3.00;;;;;23.53;29.71;97788.72;5963684;29;96584;-62
2023/04/15 13:54:52;;;;;;;;;4.00;3.00;;;;;23.77;27.04;97794.41;5948654;29;96540;-62
2023/04/15 13:58:16;;;;;;;;;4.00;4.00;;;;;23.91;28.11;97794.94;5965550;29;96506;-62
2023/04/15 14:01:20;;;;;;;;;5.50;4.50;;;;;24.26;27.69;97795.53;5964252;29;96348;-63
2023/04/15 14:04:23;;;;;;;;;7.00;6.00;;;;;24.59;27.72;97788.06;5966129;29;96855;-63
2023/04/15 14:07:29;;;;;;;;;5.00;4.00;;;;;24.65;25.41;97796.13;5954091;29;96915;-63
2023/04/15 14:10:32;;;;;;;;;3.80;3.80;;;;;24.76;25.62;97783.53;5947302;29;98424;-62
2023/04/15 14:13:36;;;;;;;;;5.00;5.00;;;;;24.53;25.24;97780.38;5959892;29;97037;-62
2023/04/15 14:16:39;;;;;;;;;6.00;5.00;;;;;24.47;25.91;97790.00;5974250;29;96471;-62
2023/04/15 14:19:43;;;;;;;;;4.60;4.60;;;;;24.51;26.40;97797.25;5976024;29;96367;-62
2023/04/15 14:22:47;;;;;;;;;5.00;4.40;;;;;24.63;25.46;97790.16;5974241;29;96926;-62
2023/04/15 14:25:51;;;;;;;;;4.60;4.60;;;;;24.88;25.81;97778.88;5941037;29;99797;-63
2023/04/15 14:28:55;;;;;;;;;4.80;4.00;;;;;24.84;24.83;97790.91;5976923;29;96759;-63